Immagine casuale
Testata Regione Lazio ARSIAL SIARL

Ultima Misura Rilevata

Temperatura, Umidità, Pioggia, Pressione Radiazione Solare, Venti, Evapotraspirazione, ecc.
Temperature diurne e notturne Direzione vento Legenda
Prov Stazione Data TMin TMed TMax UMed Pioggia PMed
FR ALATRI Basciano 17/08/2017 22,1 29,2 40 36 0 1.018
FR ALVITO Az. Ist. S. Benedetto 17/08/2017 15,5 24,8 36,4 70 N.D. 1.016
FR ANAGNI La Gloria 17/08/2017 17,3 27,3 37,2 40 0 1.014
FR ARPINO Vigne Piane 17/08/2017 22,7 28 36,7 43 0 1.015
FR BOVILLE ERNICA Sasso 17/08/2017 20,4 28,8 38,4 38 0 1.015
FR ESPERIA Modale 17/08/2017 17,2 27,4 39,5 46 0 1.018
FR PASTENA Acero 17/08/2017 N.D. N.D. N.D. N.D. N.D. N.D.
FR PIGLIO Civitella 17/08/2017 17,9 26,6 36,7 41 0 1.021
FR PONTECORVO Melfi di Sotto 17/08/2017 N.D. N.D. N.D. N.D. N.D. ----
FR S. ELIA FIUMERAPIDO Portella 17/08/2017 19,6 28,5 38,8 40 0 1.015
FR S. GIORGIO A LIRI Porto 17/08/2017 16,8 27,2 39 56 0 1.018
FR SGURGOLA Campo Lungo 17/08/2017 15 26,8 38,1 43 0 ----
FR VALLECORSA Serbatoio comunale 17/08/2017 22,1 27,1 32,8 41 0 1.016
LT APRILIA Le Ferriere 17/08/2017 18,3 26,8 35,7 62 0 1.015
LT CISTERNA B.go Carso 17/08/2017 15,7 24,2 32,4 64 0 ----
LT CISTERNA Doganella di Ninfa 17/08/2017 17,6 27,1 36,8 46 0 1.014
LT CORI Portone 17/08/2017 20,4 28,8 36,6 43 0 1.014
LT FONDI Capratica 17/08/2017 17,8 24,8 31,5 74 0 1.016
LT FORMIA Loc. Gianola 17/08/2017 18,4 26,2 32,2 73 0 ----
LT ITRI Valle Quercia 17/08/2017 N.D. N.D. N.D. N.D. N.D. N.D.
LT MAENZA Casacotta 17/08/2017 N.D. N.D. N.D. N.D. N.D. N.D.
LT MINTURNO Pulcherini 17/08/2017 22,8 28,5 34,2 45 0 1.015
LT PONTINIA Cotarda 17/08/2017 16,3 25,2 34,7 62 0 1.018
LT SABAUDIA Acquaviva 17/08/2017 16,6 23,3 30,2 75 0 1.016
LT SONNINO Frasso 17/08/2017 21,5 28,3 37,1 45 0 1.015
RI ACCUMOLI Terracino 17/08/2017 17,5 21,9 29 51 0 1.016
RI BORGOVELINO Ponte Basso 17/08/2017 17,7 25,5 37,3 49 0 1.017
RI CANTALUPO S. Francesco 17/08/2017 16,6 26,3 36,3 41 0 ----
RI CASTEL DI TORA Monte di Tora 17/08/2017 15,3 24,8 36,4 50 0 1.017
RI CASTELNUOVO FARFA C. Spadone 17/08/2017 18,8 28 38,1 43 0 ----
RI CONFIGNI Portella 17/08/2017 20,6 27,8 36,8 36 0 1.014
RI FARA SABINA Canneto 17/08/2017 22 30 40 36 0 1.019
RI FARA SABINA Sant'Andrea 17/08/2017 20,2 28,2 37,3 38 0 ----
RI MONTELEONE S. Prato Camino 17/08/2017 19,8 27,3 36,9 37 0 1.018
RI MONTOPOLI IN SABINA Colle Arcone 17/08/2017 20,8 28 36,8 41 0 ----
RI MONTOPOLI IN SABINA Villa Caprola 17/08/2017 20,4 29,3 39,3 44 0 ----
RI POGGIO CATINO Pastine 17/08/2017 20,4 28 37,2 35 0 ----
RI POGGIO NATIVO Casali 17/08/2017 21,9 27,8 34,9 43 0 ----
RI RIETI Piana di Rieti 17/08/2017 12,4 24,6 34,6 48 0 1.017
RI SCANDRIGLIA Ponticelli 17/08/2017 20,8 27,6 35 42 0 ----
RM AGOSTA La Cisterna 17/08/2017 16,2 25,8 38,4 48 0 1.016
RM BRACCIANO Prato Pianciano 17/08/2017 18,5 27,3 37 40 0 1.020
RM CANALE MONTERANO Monte Virginio 17/08/2017 N.D. N.D. N.D. N.D. N.D. N.D.
RM CERVETERI Campo di Mare 17/08/2017 19,1 24,6 30,7 56 0 ----
RM CIVITELLA S.PAOLO Le Cese 17/08/2017 21,2 28,3 37,9 48 0 1.016
RM FIUMICINO Maccarese 17/08/2017 16,2 24,5 30,9 70 N.D. 1.015
RM FIUMICINO Testa di Lepre 17/08/2017 20,9 27,2 34,8 52 0 ----
RM FRASCATI Prata Porci 17/08/2017 17 27,1 36,6 39 0 1.014
RM GENAZZANO Coop. La Sonnina 17/08/2017 19,9 28 36,1 30 0 1.016
RM GROTTAFERRATA Valle Marciana 17/08/2017 20,7 27,4 35,5 39 0 1.013
RM LICENZA Colle Franco 17/08/2017 17,5 26 36,5 43 0 1.017
RM MARCELLINA V. Campetella 17/08/2017 19,4 28 37 41 0 ----
RM MARINO Gotto d'Oro 17/08/2017 21 28,3 36,2 41 0 1.014
RM MONTECOMPATRI Colle Mattia 17/08/2017 17,9 28 36,7 38 0 1.014
RM MONTECOMPATRI Pantano Borghese 17/08/2017 15,1 26,5 37,4 50 0 1.017
RM MONTELIBRETTI Bruciati 17/08/2017 17,8 28 39,2 40 0 ----
RM MONTEPORZIO Camaldoli 17/08/2017 20,7 26,8 34,4 48 0 1.013
RM MONTEROTONDO Grotta Marozza 17/08/2017 19,9 28,2 37,6 35 0 1.016
RM PALOMBARA Fonte Grande 17/08/2017 N.D. N.D. N.D. N.D. N.D. ----
RM ROMA Capocotta 17/08/2017 19,1 24,7 30,4 76 0 ----
RM ROMA Ponte di Nona 17/08/2017 20 28 36,6 39 0 1.014
RM ROMA Via Lanciani 38 17/08/2017 22,2 28,7 35,1 45 0 1.016
RM S. GREGORIO C. Faustiniano 17/08/2017 20,6 28,1 37,2 35 0 1.017
RM VELLETRI Cantina Sperimentale 17/08/2017 20 27,6 36,5 38 0 1.017
RM VELLETRI Prato Lungo 17/08/2017 19,7 27,2 33,5 40 0 ----
RM ZAGAROLO Santa Apollara 17/08/2017 20,6 26,3 33,4 40 0 ----
VT ACQUAPENDENTE Falconiera 17/08/2017 17 26,6 37,2 39 0 1.021
VT BAGNOREGIO Castell Cellesi 17/08/2017 22,9 28,1 35 37 0 ----
VT BASSANO R. Piano Mola 17/08/2017 21,5 27,4 35,7 46 0 1.017
VT BLERA Puntoni 17/08/2017 17,6 26,5 35,7 42 0 1.014
VT BOLSENA Capone 17/08/2017 20,3 28,6 38,4 30 0 1.017
VT BOLSENA Rentica 17/08/2017 20 27,4 34,9 36 0 ----
VT CANINO Diga Timone 17/08/2017 16,7 26,5 36,3 44 0 1.018
VT CANINO Pianacce 17/08/2017 16,9 27,6 35,5 40 0 1.015
VT CANINO San Valeriano 17/08/2017 21,6 29,4 35,9 37 0 ----
VT CELLENO Acquaforte 17/08/2017 20,6 27,5 35,5 39 0 ----
VT CORCHIANO Pantalone 17/08/2017 17,5 27,6 40,1 47 0 1.016
VT FARNESE Gressa 17/08/2017 19,1 27,3 34,4 34 0 ----
VT FARNESE Pian di Sala 17/08/2017 16,7 26,8 36,6 40 0 ----
VT GROTTE DI CASTRO Borghetto 17/08/2017 18,6 27,4 35,5 38 0 1.021
VT GROTTE DI CASTRO Purgatorio 17/08/2017 15,5 26,2 36,2 40 0 1.019
VT LATERA Centro Florovivaistico 17/08/2017 18 27,1 37,8 41 0 1.016
VT MONTALTO Le Murelle 17/08/2017 16 24 30,2 62 0 1.015
VT MONTALTO Pescia Romana 17/08/2017 19,3 28,8 37,3 75 0 1.010
VT MONTEFIASCONE Commenda 17/08/2017 19,3 27,7 35,9 40 0 ----
VT RONCIGLIONE Ponterotto 17/08/2017 17,2 26,4 35,5 40 0 ----
VT SORIANO CIMINO Pantane 17/08/2017 13,4 25,6 37 47 0 1.014
VT SORIANO CIMINO Poggio di Chia 17/08/2017 17,7 26,8 35,8 39 0 ----
VT TARQUINIA Portaccia 17/08/2017 16,9 25,1 32 58 0 ----
VT TUSCANIA Montebello 17/08/2017 21,8 27,2 33,2 40 0 ----
VT VETRALLA Marchionato 17/08/2017 18,4 26,7 35,2 46 0 ----
VT VITERBO Pisello 17/08/2017 18,7 27,2 35,3 40 0 ----
N.D. = Dati Non Disponibili
---- = Sensore non presente

Le misure esposte sono grezze, ovvero non sono state validate